Time;durP1;ratioP1;P1;durP2;ratioP2;P2;SDS_P1;SDS_P2;PMS_P1;PMS_P2;Temp;Humidity;BMP_temperature;BMP_pressure;BME280_temperature;BME280_humidity;BME280_pressure;Samples;Min_cycle;Max_cycle;Signal;HPM_P1;HPM_P2
2022/08/29 01:41:44;;;;;;;9.30;3.45;;;16.50;99.90;;;;;;6276236;22;20019;-85
2022/08/29 01:44:14;;;;;;;8.50;4.15;;;16.40;99.90;;;;;;6257366;22;20390;-85
2022/08/29 01:46:39;;;;;;;8.43;3.67;;;16.40;99.90;;;;;;6311384;22;20480;-85
2022/08/29 01:49:08;;;;;;;7.90;3.65;;;16.40;99.90;;;;;;6282390;22;20067;-84
2022/08/29 01:51:34;;;;;;;8.80;3.42;;;16.40;99.90;;;;;;6258717;22;20094;-85
2022/08/29 01:54:01;;;;;;;7.70;3.60;;;16.40;99.90;;;;;;6312990;22;20448;-87
2022/08/29 02:12:26;;;;;;;8.07;3.03;;;16.30;99.90;;;;;;6293781;22;20020;-90
2022/08/29 02:14:52;;;;;;;10.50;3.70;;;16.30;99.90;;;;;;6293299;22;20013;-90
2022/08/29 02:17:19;;;;;;;7.70;3.55;;;16.30;99.90;;;;;;6300001;22;20019;-90
2022/08/29 02:19:44;;;;;;;11.07;3.50;;;16.30;99.90;;;;;;6289603;22;20058;-88
2022/08/29 02:22:10;;;;;;;9.82;3.45;;;16.30;99.90;;;;;;6283108;22;20015;-88
2022/08/29 02:24:36;;;;;;;11.50;3.35;;;16.30;99.90;;;;;;6259974;22;20022;-88
2022/08/29 02:27:02;;;;;;;7.65;3.45;;;16.30;99.90;;;;;;6257231;22;20022;-88
2022/08/29 02:29:28;;;;;;;10.73;3.80;;;16.30;99.90;;;;;;6257379;22;20018;-86
2022/08/29 02:31:53;;;;;;;6.30;3.15;;;16.30;99.90;;;;;;6310968;22;20018;-87
2022/08/29 02:34:19;;;;;;;8.15;3.35;;;16.30;99.90;;;;;;6257494;22;20090;-88
2022/08/29 02:36:45;;;;;;;7.50;2.85;;;16.30;99.90;;;;;;6283385;22;20019;-88
2022/08/29 02:39:11;;;;;;;10.80;3.80;;;16.30;99.90;;;;;;6254197;22;20022;-89
2022/08/29 03:26:46;;;;;;;7.25;3.90;;;16.30;99.90;;;;;;6276741;22;20360;-90
2022/08/29 03:29:12;;;;;;;12.25;3.20;;;16.30;99.90;;;;;;6282921;22;20094;-90
2022/08/29 03:31:38;;;;;;;9.48;4.38;;;16.30;99.90;;;;;;6285480;22;20082;-93
2022/08/29 03:34:04;;;;;;;8.68;4.55;;;16.30;99.90;;;;;;6283671;22;20019;-91
2022/08/29 03:36:31;;;;;;;9.52;3.78;;;16.30;99.90;;;;;;6311648;22;20015;-92
2022/08/29 03:38:57;;;;;;;9.77;4.00;;;16.30;99.90;;;;;;6284073;22;20015;-91
2022/08/29 03:41:25;;;;;;;10.07;3.85;;;16.20;99.90;;;;;;6254277;22;20015;-86
2022/08/29 03:43:54;;;;;;;8.02;3.50;;;16.30;99.90;;;;;;6273529;22;20057;-85
2022/08/29 03:46:20;;;;;;;10.75;3.35;;;16.30;99.90;;;;;;6251542;22;20008;-85
2022/08/29 03:48:46;;;;;;;8.20;3.28;;;16.30;99.90;;;;;;6277300;22;20008;-85
2022/08/29 03:51:12;;;;;;;8.30;3.35;;;16.30;99.90;;;;;;6277102;22;20043;-87
2022/08/29 03:53:39;;;;;;;9.23;3.58;;;16.30;99.90;;;;;;6251653;22;20012;-84
2022/08/29 03:56:06;;;;;;;7.38;2.97;;;16.30;99.90;;;;;;6276127;22;20039;-84
2022/08/29 03:58:32;;;;;;;6.50;3.10;;;16.30;99.90;;;;;;6250509;22;20007;-85
2022/08/29 04:00:58;;;;;;;7.88;2.80;;;16.30;99.90;;;;;;6277219;22;20023;-85
2022/08/29 04:03:24;;;;;;;6.65;2.95;;;16.40;99.90;;;;;;6276196;22;20012;-85
2022/08/29 04:05:50;;;;;;;9.70;3.20;;;16.30;99.90;;;;;;6276856;22;20047;-84
2022/08/29 04:08:16;;;;;;;12.07;3.33;;;16.40;99.90;;;;;;6277951;22;20077;-84
2022/08/29 04:10:41;;;;;;;9.52;3.13;;;16.40;99.90;;;;;;6275426;22;20008;-85
2022/08/29 04:13:08;;;;;;;8.68;2.83;;;16.40;99.90;;;;;;6276085;22;20019;-85
2022/08/29 04:15:35;;;;;;;7.00;2.92;;;16.40;99.90;;;;;;6251449;22;20004;-85
2022/08/29 04:18:04;;;;;;;8.13;2.95;;;16.40;99.90;;;;;;6275577;22;20330;-85
2022/08/29 04:20:34;;;;;;;8.63;3.25;;;16.40;99.90;;;;;;6249824;22;20019;-85
2022/08/29 04:23:01;;;;;;;7.22;2.88;;;16.40;99.90;;;;;;6250152;22;20065;-85
2022/08/29 04:25:34;;;;;;;9.45;3.00;;;16.40;99.90;;;;;;6223382;22;20134;-84
2022/08/29 04:28:00;;;;;;;9.98;3.10;;;16.40;99.90;;;;;;6237221;22;20405;-84
2022/08/29 04:30:27;;;;;;;8.05;3.00;;;16.40;99.90;;;;;;6212429;22;20047;-84
2022/08/29 04:32:53;;;;;;;8.05;2.28;;;16.40;99.90;;;;;;6211959;23;20036;-83
2022/08/29 04:35:19;;;;;;;7.40;2.30;;;16.40;99.90;;;;;;6186311;22;20012;-84
2022/08/29 04:37:45;;;;;;;11.68;2.75;;;16.40;99.90;;;;;;6212018;23;20147;-84
2022/08/29 04:40:16;;;;;;;11.07;2.20;;;16.50;99.90;;;;;;6186499;22;20068;-85
2022/08/29 06:41:42;;;;;;;9.93;2.53;;;17.30;99.90;;;;;;6261639;22;20077;-88
2022/08/29 07:32:30;;;;;;;5.72;2.35;;;19.00;99.90;;;;;;6252066;22;20193;-88
2022/08/29 07:34:55;;;;;;;6.00;1.92;;;19.20;99.90;;;;;;6249362;22;20151;-89
2022/08/29 07:37:21;;;;;;;6.70;2.38;;;19.30;99.90;;;;;;6249348;22;20398;-90
2022/08/29 07:39:47;;;;;;;8.30;2.35;;;19.30;99.90;;;;;;6277919;22;20352;-87
2022/08/29 07:57:47;;;;;;;5.22;1.73;;;19.60;99.90;;;;;;6249098;22;20020;-88
2022/08/29 08:00:13;;;;;;;8.05;2.28;;;19.70;99.90;;;;;;6221646;22;20016;-89
2022/08/29 08:02:39;;;;;;;9.73;2.75;;;19.70;99.90;;;;;;6226244;22;20012;-90
2022/08/29 08:05:08;;;;;;;8.18;2.00;;;19.80;99.90;;;;;;6223569;22;20023;-88
2022/08/29 08:07:34;;;;;;;6.05;2.22;;;19.80;99.90;;;;;;6223159;22;20011;-90
2022/08/29 08:10:00;;;;;;;10.90;2.30;;;19.80;99.90;;;;;;6222248;22;20004;-88
2022/08/29 10:42:30;;;;;;;13.07;3.90;;;21.40;99.90;;;;;;6236917;22;20023;-86
2022/08/29 10:45:12;;;;;;;8.77;3.25;;;21.40;99.90;;;;;;6285145;22;20014;-86
2022/08/29 10:47:40;;;;;;;15.13;3.53;;;21.50;99.90;;;;;;6282966;22;20330;-88
2022/08/29 10:50:37;;;;;;;9.95;3.40;;;21.50;99.90;;;;;;6312506;22;20189;-88
2022/08/29 10:53:18;;;;;;;10.90;3.22;;;21.60;99.90;;;;;;6284057;22;20019;-87
2022/08/29 10:55:59;;;;;;;10.85;3.00;;;21.70;99.90;;;;;;6254604;22;20091;-88
2022/08/29 14:27:46;;;;;;;15.33;3.47;;;20.90;99.90;;;;;;6253703;22;20023;31
2022/08/29 15:44:11;;;;;;;9.50;2.80;;;22.40;99.90;;;;;;6265055;22;20019;-85
2022/08/29 15:46:36;;;;;;;8.25;3.10;;;22.20;99.90;;;;;;6281573;22;20115;-86
2022/08/29 15:49:05;;;;;;;10.70;2.35;;;22.00;99.90;;;;;;6255540;22;20036;-86
2022/08/29 15:51:32;;;;;;;10.38;2.90;;;22.00;99.90;;;;;;6282782;22;20022;-85
2022/08/29 15:53:57;;;;;;;14.23;2.58;;;21.80;99.90;;;;;;6309594;22;20022;-86
2022/08/29 15:56:23;;;;;;;11.48;3.97;;;21.80;99.90;;;;;;6264187;22;20016;-86
2022/08/29 18:36:28;;;;;;;4.47;1.73;;;18.70;99.90;;;;;;6288564;22;20051;31
2022/08/29 18:38:54;;;;;;;4.60;2.33;;;18.60;99.90;;;;;;6249578;22;20000;-92
2022/08/29 18:41:20;;;;;;;5.68;2.40;;;18.60;99.90;;;;;;6249197;22;20028;-91
2022/08/29 18:43:46;;;;;;;4.32;1.70;;;18.50;99.90;;;;;;6253614;22;20505;-95
2022/08/29 18:46:12;;;;;;;8.57;2.25;;;18.50;99.90;;;;;;6289775;22;20035;-89
2022/08/29 18:48:39;;;;;;;4.35;1.80;;;18.40;99.90;;;;;;6245710;22;20380;-89
2022/08/29 18:51:05;;;;;;;6.35;1.92;;;18.40;99.90;;;;;;6243091;22;20095;-88
2022/08/29 18:53:31;;;;;;;4.18;2.13;;;18.40;99.90;;;;;;6219330;23;20408;-91
2022/08/29 18:55:59;;;;;;;7.43;1.95;;;18.40;99.90;;;;;;6223577;23;20012;-90
2022/08/29 18:58:29;;;;;;;4.68;1.83;;;18.30;99.90;;;;;;6246637;22;20012;-90
2022/08/29 19:00:57;;;;;;;6.38;2.20;;;18.40;99.90;;;;;;6245320;22;20016;-91
2022/08/29 19:03:23;;;;;;;4.28;1.50;;;18.30;99.90;;;;;;6245703;22;20027;-91
2022/08/29 19:05:50;;;;;;;5.72;2.22;;;18.30;99.90;;;;;;6249612;22;20012;-91
2022/08/29 19:08:19;;;;;;;5.57;1.95;;;18.30;99.90;;;;;;6221282;22;20072;-91
2022/08/29 19:10:46;;;;;;;6.05;1.90;;;18.30;99.90;;;;;;6246289;22;20393;-91
2022/08/29 19:13:12;;;;;;;5.60;1.70;;;18.30;99.90;;;;;;6220603;22;20054;-90
2022/08/29 19:15:38;;;;;;;5.00;1.98;;;18.20;99.90;;;;;;6245321;22;20543;-88
2022/08/29 19:18:06;;;;;;;6.75;2.20;;;18.20;99.90;;;;;;6253647;22;20019;-89
2022/08/29 19:23:18;;;;;;;5.18;2.22;;;18.20;99.90;;;;;;6278623;22;20022;-88
2022/08/29 19:25:44;;;;;;;6.82;1.90;;;18.20;99.90;;;;;;6278183;22;20082;-88
2022/08/29 19:28:11;;;;;;;5.75;1.95;;;18.20;99.90;;;;;;6277145;22;20015;-88
2022/08/29 21:00:30;;;;;;;6.47;2.53;;;16.80;99.90;;;;;;6318017;22;20068;-87
2022/08/29 21:05:41;;;;;;;5.07;3.28;;;16.80;99.90;;;;;;6330805;22;20555;-87
2022/08/29 21:08:11;;;;;;;5.40;2.60;;;16.80;99.90;;;;;;6270122;22;20011;-86
2022/08/29 21:10:37;;;;;;;6.38;2.67;;;16.70;99.90;;;;;;6303052;22;20443;-87
2022/08/29 21:13:03;;;;;;;7.22;2.67;;;16.70;99.90;;;;;;6275384;22;20097;-87
2022/08/29 21:15:30;;;;;;;9.40;2.92;;;16.70;99.90;;;;;;6315099;22;20022;-83
2022/08/29 21:17:56;;;;;;;6.82;3.13;;;16.60;99.90;;;;;;6252078;22;20015;-83
2022/08/29 21:20:22;;;;;;;5.90;2.70;;;16.60;99.90;;;;;;6252479;22;20011;-83
2022/08/29 21:22:47;;;;;;;5.97;2.55;;;16.60;99.90;;;;;;6278930;22;20026;-83
2022/08/29 21:25:14;;;;;;;5.97;2.42;;;16.60;99.90;;;;;;6252196;22;20022;-83
2022/08/29 21:27:39;;;;;;;5.07;2.47;;;16.60;99.90;;;;;;6277744;22;20011;-84
2022/08/29 21:30:05;;;;;;;4.50;2.00;;;16.60;99.90;;;;;;6268590;22;20016;-83
2022/08/29 21:32:31;;;;;;;6.40;2.80;;;16.50;99.90;;;;;;6216367;23;20027;-82
2022/08/29 21:34:57;;;;;;;8.32;3.03;;;16.50;99.90;;;;;;6194140;22;20016;-83
2022/08/29 21:37:23;;;;;;;5.55;2.55;;;16.50;99.90;;;;;;6195477;23;20012;-82
2022/08/29 21:39:49;;;;;;;5.97;2.30;;;16.50;99.90;;;;;;6195231;22;20143;-83
2022/08/29 21:42:15;;;;;;;7.00;2.50;;;16.50;99.90;;;;;;6195141;22;20453;-83
2022/08/29 23:01:49;;;;;;;9.63;4.03;;;16.00;99.90;;;;;;6247249;22;20221;-93
2022/08/29 23:04:16;;;;;;;8.38;3.65;;;16.10;99.90;;;;;;6196465;23;20030;-92
2022/08/29 23:06:42;;;;;;;6.45;3.72;;;16.10;99.90;;;;;;6198860;23;20020;-92
2022/08/29 23:09:07;;;;;;;8.40;3.70;;;16.10;99.90;;;;;;6222832;23;20123;-93
2022/08/29 23:11:34;;;;;;;7.10;4.07;;;16.10;99.90;;;;;;6221406;23;20008;-93
2022/08/29 23:13:59;;;;;;;6.25;3.97;;;16.10;99.90;;;;;;6226986;23;20032;-92
